Aérodrome :
LOGIN :

S'inscrire | Disclaimer

   EN    FR    IT 

 










Légende :    VFR   VFR Marginal   IFR   IFR Intensif   IFR Très Intensif
Visi : 
Plafond : 
>= 8 km
>= 3000ft
5 à 8 km
1000 à 3000 ft
1500m à 5 km
500 à 1000 ft
800 à 1500m
200 à 500 ft
< 800m
< 200 ft
Symboles :   Orages  Brouillard  Fortes neiges  Fortes précipitations  Vent > 20 kt
SIGMETs :   Divers  Orages  Givrage  Turbulence  Onde Orograph.  Cendres Volcan.







- Altitude de l'aérodrome : 1106 ft
- Voir les cartes d'approche


LFSO - Nancy / Ochey

DERNIER METAR :
  • 200530Z AUTO 14005KT CAVOK 18/12 Q1013

METARs EXPIRÉS :
  • 200500Z AUTO 14004KT 100V160 CAVOK 18/13 Q1013
  • 200430Z AUTO VRB02KT CAVOK 17/12 Q1013
  • 200400Z AUTO 15007KT CAVOK 17/12 Q1013
  • 200330Z AUTO 15008KT CAVOK 16/13 Q1013
  • 200300Z AUTO 16005KT CAVOK 16/13 Q1014

TAF AMD TAF LFSO
Valide du 20 à 05h jusqu'au 21 à 03h UTC


200200Z 2005/2103 18005KT CAVOK
BECMG 2011/2013 SCT080CB
TEMPO 2013/2018 22013G23KT SHRA
PROB30
TEMPO 2015/2019 TSRA
TEMPO 2023/2103 SHRA
Pas de NOTAMs connus pour ce terrain.



MET'MAP, la Météo Aéronautique d'un coup d'oeil ! - Copyright ORBIFLY Décembre 2007 - Disclaimer

ORBIFLY MET'MAP TEAM :

Programmation & Développement : Alexandra Zaïnal
Conception & Développement : Baudouin d'Aumeries
Co-Programmation & Développement : Marc-Olivier Méhu
Soutien technique & logistique : Manuel Goepfert

Contact : metmap@orbifly.com




SOURCES & CREDITS :

   NOAA